createdAt,value
2023-01-02T00:00:33.380Z,16.87
2023-01-02T00:01:33.510Z,16.87
2023-01-02T00:02:33.741Z,16.87
2023-01-02T00:03:34.014Z,16.83
2023-01-02T00:04:34.007Z,16.83
2023-01-02T00:05:34.159Z,16.81
2023-01-02T00:06:34.328Z,16.76
2023-01-02T00:07:34.519Z,16.69
2023-01-02T00:08:34.688Z,16.68
2023-01-02T00:09:34.843Z,16.68
2023-01-02T00:10:35.027Z,16.64
2023-01-02T00:11:35.179Z,16.64
2023-01-02T00:12:35.357Z,16.64
2023-01-02T00:13:35.509Z,16.61
2023-01-02T00:14:35.704Z,16.64
2023-01-02T00:15:35.875Z,16.66
2023-01-02T00:16:36.109Z,16.64
2023-01-02T00:17:36.199Z,16.65
2023-01-02T00:18:36.370Z,16.61
2023-01-02T00:19:36.523Z,16.57
2023-01-02T00:20:36.688Z,16.53
2023-01-02T00:21:36.849Z,16.53
2023-01-02T00:22:37.016Z,16.53
2023-01-02T00:23:37.180Z,16.47
2023-01-02T00:24:37.337Z,16.46
2023-01-02T00:25:37.527Z,16.47
2023-01-02T00:26:37.678Z,16.49
2023-01-02T00:27:37.838Z,16.49
2023-01-02T00:28:38.012Z,16.49
2023-01-02T00:29:38.177Z,16.50
2023-01-02T00:30:38.777Z,16.50
2023-01-02T00:31:38.542Z,16.50
2023-01-02T00:32:38.698Z,16.50
2023-01-02T00:33:38.867Z,16.49
2023-01-02T00:34:39.037Z,16.47
2023-01-02T00:35:39.215Z,16.43
2023-01-02T00:36:39.385Z,16.46
2023-01-02T00:37:39.537Z,16.46
2023-01-02T00:38:39.726Z,16.49
2023-01-02T00:39:39.889Z,16.49
2023-01-02T00:40:40.067Z,16.49
2023-01-02T00:41:40.228Z,16.50
2023-01-02T00:42:40.399Z,16.47
2023-01-02T00:43:40.561Z,16.47
2023-01-02T00:44:40.727Z,16.49
2023-01-02T00:45:40.909Z,16.50
2023-01-02T00:46:41.115Z,16.51
2023-01-02T00:47:41.252Z,16.53
2023-01-02T00:48:41.494Z,16.54
2023-01-02T00:49:41.627Z,16.54
2023-01-02T00:50:41.878Z,16.54
2023-01-02T00:51:41.976Z,16.54
2023-01-02T00:52:42.136Z,16.57
2023-01-02T00:53:42.310Z,16.58
2023-01-02T00:54:42.466Z,16.60
2023-01-02T00:55:42.637Z,16.60
2023-01-02T00:56:42.797Z,16.61
2023-01-02T00:57:42.969Z,16.65
2023-01-02T00:58:43.167Z,16.64
2023-01-02T00:59:43.346Z,16.64
2023-01-02T01:00:43.543Z,16.65
2023-01-02T01:01:43.831Z,16.66
2023-01-02T01:02:44.037Z,16.64
2023-01-02T01:03:44.041Z,16.61
2023-01-02T01:04:44.200Z,16.61
2023-01-02T01:05:44.357Z,16.64
2023-01-02T01:06:44.528Z,16.64
2023-01-02T01:07:44.706Z,16.65
2023-01-02T01:08:44.872Z,16.60
2023-01-02T01:09:45.028Z,16.61
2023-01-02T01:10:45.199Z,16.60
2023-01-02T01:11:45.425Z,16.58
2023-01-02T01:12:45.530Z,16.57
2023-01-02T01:13:45.700Z,16.51
2023-01-02T01:14:45.847Z,16.49
2023-01-02T01:15:46.047Z,16.49
2023-01-02T01:16:46.189Z,16.47
2023-01-02T01:17:46.329Z,16.50
2023-01-02T01:18:46.532Z,16.47
2023-01-02T01:19:46.689Z,16.46
2023-01-02T01:20:46.868Z,16.46
2023-01-02T01:21:47.031Z,16.47
2023-01-02T01:22:47.198Z,16.43
2023-01-02T01:23:47.348Z,16.42
2023-01-02T01:24:47.545Z,16.43
2023-01-02T01:25:47.777Z,16.46
2023-01-02T01:26:47.887Z,16.42
2023-01-02T01:27:48.041Z,16.43
2023-01-02T01:28:48.196Z,16.42
2023-01-02T01:29:48.365Z,16.42
2023-01-02T01:30:48.537Z,16.43
2023-01-02T01:31:48.755Z,16.42
2023-01-02T01:32:48.878Z,16.46
2023-01-02T01:33:49.017Z,16.46
2023-01-02T01:34:49.222Z,16.47
2023-01-02T01:35:49.392Z,16.49
2023-01-02T01:36:49.547Z,16.43
2023-01-02T01:37:49.711Z,16.42
2023-01-02T01:38:49.880Z,16.46
2023-01-02T01:39:55.424Z,16.46
2023-01-02T01:40:51.247Z,16.49
2023-01-02T01:41:50.382Z,16.47
2023-01-02T01:42:50.693Z,16.49
2023-01-02T01:43:50.729Z,16.50
2023-01-02T01:44:50.919Z,16.47
2023-01-02T01:45:51.101Z,16.49
2023-01-02T01:46:51.229Z,16.47
2023-01-02T01:47:51.391Z,16.47
2023-01-02T01:48:51.580Z,16.47
2023-01-02T01:49:51.723Z,16.49
2023-01-02T01:50:51.900Z,16.50
2023-01-02T01:51:52.074Z,16.47
2023-01-02T01:52:52.228Z,16.49
2023-01-02T01:53:52.395Z,16.50
2023-01-02T01:54:52.555Z,16.49
2023-01-02T01:55:52.755Z,16.49
2023-01-02T01:56:52.899Z,16.50
2023-01-02T01:57:53.048Z,16.51
2023-01-02T01:58:53.219Z,16.53
2023-01-02T01:59:53.393Z,16.54
2023-01-02T02:00:53.602Z,16.56
2023-01-02T02:01:53.932Z,16.56
2023-01-02T02:02:54.030Z,16.58
2023-01-02T02:03:54.124Z,16.57
2023-01-02T02:04:54.285Z,16.60
2023-01-02T02:05:54.457Z,16.60
2023-01-02T02:06:54.624Z,16.60
2023-01-02T02:07:54.797Z,16.58
2023-01-02T02:08:54.967Z,16.61
2023-01-02T02:09:55.126Z,16.64
2023-01-02T02:10:55.308Z,16.64
2023-01-02T02:11:55.484Z,16.66
2023-01-02T02:12:55.665Z,16.68
2023-01-02T02:13:55.809Z,16.69
2023-01-02T02:14:56.018Z,16.68
2023-01-02T02:15:56.183Z,16.68
2023-01-02T02:16:56.385Z,16.69
2023-01-02T02:17:56.529Z,16.71
2023-01-02T02:18:56.703Z,16.71
2023-01-02T02:19:56.852Z,16.71
2023-01-02T02:20:57.017Z,16.75
2023-01-02T02:21:57.188Z,16.75
2023-01-02T02:22:57.351Z,16.78
2023-01-02T02:23:57.509Z,16.79
2023-01-02T02:24:57.672Z,16.79
2023-01-02T02:25:57.828Z,16.84
2023-01-02T02:26:58.009Z,16.86
2023-01-02T02:27:58.178Z,16.89
2023-01-02T02:28:58.349Z,16.89
2023-01-02T02:29:58.499Z,16.90
2023-01-02T02:30:59.667Z,16.93
2023-01-02T02:31:58.909Z,16.96
2023-01-02T02:32:59.059Z,16.97
2023-01-02T02:33:59.240Z,16.96
2023-01-02T02:34:59.400Z,16.97
2023-01-02T02:35:59.548Z,17.01
2023-01-02T02:36:59.747Z,17.05
2023-01-02T02:37:59.916Z,17.08
2023-01-02T02:39:00.108Z,17.09
2023-01-02T02:40:00.236Z,17.12
2023-01-02T02:41:00.414Z,17.16
2023-01-02T02:42:00.575Z,17.15
2023-01-02T02:43:00.738Z,17.19
2023-01-02T02:44:00.906Z,17.20
2023-01-02T02:45:01.065Z,17.23
2023-01-02T02:46:01.281Z,17.24
2023-01-02T02:47:01.430Z,17.26
2023-01-02T02:48:01.595Z,17.27
2023-01-02T02:49:01.781Z,17.29
2023-01-02T02:50:01.896Z,17.30
2023-01-02T02:51:02.074Z,17.31
2023-01-02T02:52:02.246Z,17.31
2023-01-02T02:53:02.421Z,17.33
2023-01-02T02:54:02.579Z,17.31
2023-01-02T02:55:02.741Z,17.31
2023-01-02T02:56:02.903Z,17.33
2023-01-02T02:57:03.101Z,17.34
2023-01-02T02:58:03.267Z,17.33
2023-01-02T02:59:03.407Z,17.33
2023-01-02T03:00:03.615Z,17.34
2023-01-02T03:01:03.768Z,17.38
2023-01-02T03:02:04.084Z,17.39
2023-01-02T03:03:04.142Z,17.41
2023-01-02T03:04:04.250Z,17.41
2023-01-02T03:05:04.446Z,17.42
2023-01-02T03:06:04.589Z,17.42
2023-01-02T03:07:04.782Z,17.42
2023-01-02T03:08:04.922Z,17.41
2023-01-02T03:09:05.080Z,17.44
2023-01-02T03:10:05.248Z,17.44
2023-01-02T03:11:05.411Z,17.45
2023-01-02T03:12:05.579Z,17.42
2023-01-02T03:13:05.742Z,17.42
2023-01-02T03:14:05.922Z,17.42
2023-01-02T03:15:06.066Z,17.44
2023-01-02T03:16:06.233Z,17.44
2023-01-02T03:17:06.404Z,17.44
2023-01-02T03:18:06.573Z,17.45
2023-01-02T03:19:06.740Z,17.45
2023-01-02T03:20:06.906Z,17.48
2023-01-02T03:21:07.079Z,17.46
2023-01-02T03:22:07.259Z,17.48
2023-01-02T03:23:07.412Z,17.48
2023-01-02T03:24:07.591Z,17.49
2023-01-02T03:25:07.760Z,17.46
2023-01-02T03:26:07.921Z,17.46
2023-01-02T03:27:08.095Z,17.44
2023-01-02T03:28:08.272Z,17.46
2023-01-02T03:29:08.435Z,17.46
2023-01-02T03:30:08.593Z,17.49
2023-01-02T03:31:08.769Z,17.49
2023-01-02T03:32:08.900Z,17.49
2023-01-02T03:33:09.083Z,17.49
2023-01-02T03:34:09.250Z,17.49
2023-01-02T03:35:09.400Z,17.51
2023-01-02T03:36:09.571Z,17.51
2023-01-02T03:37:09.725Z,17.49
2023-01-02T03:38:09.913Z,17.51
2023-01-02T03:39:10.075Z,17.57
2023-01-02T03:40:10.228Z,17.54
2023-01-02T03:41:10.390Z,17.54
2023-01-02T03:42:10.585Z,17.54
2023-01-02T03:43:10.752Z,17.59
2023-01-02T03:44:10.912Z,17.59
2023-01-02T03:45:11.073Z,17.60
2023-01-02T03:46:11.253Z,17.60
2023-01-02T03:47:11.412Z,17.59
2023-01-02T03:48:11.621Z,17.59
2023-01-02T03:49:11.792Z,17.60
2023-01-02T03:50:11.967Z,17.59
2023-01-02T03:51:12.130Z,17.59
2023-01-02T03:52:12.291Z,17.63
2023-01-02T03:53:12.452Z,17.59
2023-01-02T03:54:12.611Z,17.57
2023-01-02T03:55:12.772Z,17.59
2023-01-02T03:56:12.937Z,17.56
2023-01-02T03:57:13.096Z,17.57
2023-01-02T03:58:13.264Z,17.59
2023-01-02T03:59:13.425Z,17.57
2023-01-02T04:00:13.583Z,17.60
2023-01-02T04:01:13.816Z,17.57
2023-01-02T04:02:14.056Z,17.57
2023-01-02T04:03:14.088Z,17.54
2023-01-02T04:04:14.232Z,17.54
2023-01-02T04:05:14.406Z,17.51
2023-01-02T04:06:14.567Z,17.51
2023-01-02T04:07:14.723Z,17.52
2023-01-02T04:08:14.897Z,17.52
2023-01-02T04:09:15.059Z,17.51
2023-01-02T04:10:15.216Z,17.51
2023-01-02T04:11:15.387Z,17.49
2023-01-02T04:12:15.562Z,17.51
2023-01-02T04:13:15.714Z,17.51
2023-01-02T04:14:15.884Z,17.52
2023-01-02T04:15:16.043Z,17.51
2023-01-02T04:16:16.211Z,17.54
2023-01-02T04:17:16.402Z,17.52
2023-01-02T04:18:16.544Z,17.54
2023-01-02T04:19:16.703Z,17.54
2023-01-02T04:20:16.871Z,17.52
2023-01-02T04:21:17.023Z,17.54
2023-01-02T04:22:17.213Z,17.56
2023-01-02T04:23:17.402Z,17.54
2023-01-02T04:24:17.532Z,17.54
2023-01-02T04:25:17.702Z,17.54
2023-01-02T04:26:17.859Z,17.56
2023-01-02T04:27:18.034Z,17.54
2023-01-02T04:28:18.201Z,17.54
2023-01-02T04:29:18.355Z,17.52
2023-01-02T04:30:18.517Z,17.51
2023-01-02T04:31:18.723Z,17.54
2023-01-02T04:32:18.882Z,17.54
2023-01-02T04:33:19.037Z,17.57
2023-01-02T04:34:19.203Z,17.56
2023-01-02T04:35:19.389Z,17.57
2023-01-02T04:36:19.542Z,17.57
2023-01-02T04:37:19.704Z,17.57
2023-01-02T04:38:19.873Z,17.57
2023-01-02T04:39:20.032Z,17.56
2023-01-02T04:40:20.201Z,17.57
2023-01-02T04:41:20.353Z,17.59
2023-01-02T04:42:20.526Z,17.57
2023-01-02T04:43:20.717Z,17.54
2023-01-02T04:44:20.853Z,17.54
2023-01-02T04:45:21.022Z,17.54
2023-01-02T04:46:21.207Z,17.56
2023-01-02T04:47:22.037Z,17.56
2023-01-02T04:48:21.522Z,17.56
2023-01-02T04:49:21.693Z,17.57
2023-01-02T04:50:21.870Z,17.59
2023-01-02T04:51:22.004Z,17.57
2023-01-02T04:52:22.215Z,17.59
2023-01-02T04:53:22.374Z,17.57
2023-01-02T04:54:22.541Z,17.57
2023-01-02T04:55:22.701Z,17.57
2023-01-02T04:56:22.860Z,17.57
2023-01-02T04:57:23.035Z,17.57
2023-01-02T04:58:23.203Z,17.60
2023-01-02T04:59:23.354Z,17.64
2023-01-02T05:00:23.514Z,17.64
2023-01-02T05:01:23.746Z,17.65
2023-01-02T05:02:24.012Z,17.67
2023-01-02T05:03:24.033Z,17.68
2023-01-02T05:04:24.195Z,17.68
2023-01-02T05:05:24.377Z,17.68
2023-01-02T05:06:24.525Z,17.70
2023-01-02T05:07:24.715Z,17.68
2023-01-02T05:08:24.864Z,17.70
2023-01-02T05:09:25.015Z,17.68
2023-01-02T05:10:25.241Z,17.72
2023-01-02T05:11:25.402Z,17.74
2023-01-02T05:12:25.576Z,17.74
2023-01-02T05:13:25.737Z,17.72
2023-01-02T05:14:25.893Z,17.72
2023-01-02T05:15:26.055Z,17.72
2023-01-02T05:16:26.265Z,17.70
2023-01-02T05:17:26.396Z,17.72
2023-01-02T05:18:26.565Z,17.71
2023-01-02T05:19:26.734Z,17.71
2023-01-02T05:20:26.885Z,17.71
2023-01-02T05:21:27.049Z,17.72
2023-01-02T05:22:27.225Z,17.72
2023-01-02T05:23:27.383Z,17.71
2023-01-02T05:24:27.563Z,17.68
2023-01-02T05:25:27.708Z,17.68
2023-01-02T05:26:27.869Z,17.67
2023-01-02T05:27:28.059Z,17.63
2023-01-02T05:28:31.171Z,17.60
2023-01-02T05:29:29.387Z,17.60
2023-01-02T05:30:28.588Z,17.59
2023-01-02T05:31:28.918Z,17.60
2023-01-02T05:32:28.934Z,17.60
2023-01-02T05:33:29.092Z,17.63
2023-01-02T05:34:29.261Z,17.64
2023-01-02T05:35:33.000Z,17.64
2023-01-02T05:36:29.627Z,17.63
2023-01-02T05:37:29.795Z,17.64
2023-01-02T05:38:29.957Z,17.64
2023-01-02T05:39:30.122Z,17.64
2023-01-02T05:40:30.285Z,17.60
2023-01-02T05:41:30.457Z,17.64
2023-01-02T05:42:30.631Z,17.63
2023-01-02T05:43:30.789Z,17.60
2023-01-02T05:44:30.946Z,17.63
2023-01-02T05:45:31.112Z,17.63
2023-01-02T05:46:31.295Z,17.63
2023-01-02T05:47:31.456Z,17.60
2023-01-02T05:48:31.620Z,17.60
2023-01-02T05:49:31.778Z,17.63
2023-01-02T05:50:31.949Z,17.63
2023-01-02T05:51:32.108Z,17.64
2023-01-02T05:52:32.278Z,17.63
2023-01-02T05:53:32.447Z,17.65
2023-01-02T05:54:32.615Z,17.67
2023-01-02T05:55:32.767Z,17.64
2023-01-02T05:56:32.945Z,17.68
2023-01-02T05:57:33.107Z,17.67
2023-01-02T05:58:33.293Z,17.68
2023-01-02T05:59:36.138Z,17.70
2023-01-02T06:00:33.617Z,17.71
2023-01-02T06:01:33.865Z,17.71
2023-01-02T06:02:34.108Z,17.71
2023-01-02T06:03:34.175Z,17.72
2023-01-02T06:04:34.328Z,17.71
2023-01-02T06:05:34.515Z,17.72
2023-01-02T06:06:34.679Z,17.70
2023-01-02T06:07:34.853Z,17.72
2023-01-02T06:08:35.017Z,17.71
2023-01-02T06:09:35.179Z,17.71
2023-01-02T06:10:35.345Z,17.74
2023-01-02T06:11:35.497Z,17.74
2023-01-02T06:12:35.688Z,17.79
2023-01-02T06:13:35.851Z,17.76
2023-01-02T06:14:36.036Z,17.74
2023-01-02T06:15:36.188Z,17.76
2023-01-02T06:16:36.417Z,17.76
2023-01-02T06:17:36.568Z,17.78
2023-01-02T06:18:36.737Z,17.79
2023-01-02T06:19:36.909Z,17.78
2023-01-02T06:20:37.067Z,17.79
2023-01-02T06:21:37.228Z,17.80
2023-01-02T06:22:37.431Z,17.79
2023-01-02T06:23:37.563Z,17.80
2023-01-02T06:24:37.770Z,17.82
2023-01-02T06:25:37.907Z,17.82
2023-01-02T06:26:38.069Z,17.83
2023-01-02T06:27:38.267Z,17.82
2023-01-02T06:28:38.422Z,17.83
2023-01-02T06:29:38.569Z,17.83
2023-01-02T06:30:38.737Z,17.87
2023-01-02T06:31:40.026Z,17.86
2023-01-02T06:32:39.159Z,17.87
2023-01-02T06:33:39.250Z,17.86
2023-01-02T06:34:39.444Z,17.89
2023-01-02T06:35:39.607Z,17.90
2023-01-02T06:36:39.783Z,17.92
2023-01-02T06:37:39.936Z,17.94
2023-01-02T06:38:40.088Z,17.95
2023-01-02T06:39:40.258Z,17.98
2023-01-02T06:40:40.420Z,18.00
2023-01-02T06:41:40.575Z,18.00
2023-01-02T06:42:40.779Z,18.00
2023-01-02T06:43:40.960Z,18.01
2023-01-02T06:44:41.108Z,18.03
2023-01-02T06:45:41.288Z,18.05
2023-01-02T06:46:41.485Z,18.05
2023-01-02T06:47:41.648Z,18.05
2023-01-02T06:48:41.827Z,18.08
2023-01-02T06:49:41.982Z,18.10
2023-01-02T06:50:42.143Z,18.10
2023-01-02T06:51:42.301Z,18.11
2023-01-02T06:52:42.477Z,18.11
2023-01-02T06:53:42.643Z,18.15
2023-01-02T06:54:42.800Z,18.15
2023-01-02T06:55:42.967Z,18.15
2023-01-02T06:56:43.138Z,18.13
2023-01-02T06:57:43.322Z,18.15
2023-01-02T06:58:43.513Z,18.16
2023-01-02T06:59:43.668Z,18.16
2023-01-02T07:00:43.959Z,18.18
2023-01-02T07:01:44.207Z,18.15
2023-01-02T07:02:44.326Z,18.13
2023-01-02T07:03:44.398Z,18.11
2023-01-02T07:04:44.579Z,18.10
2023-01-02T07:05:44.744Z,18.10
2023-01-02T07:06:44.930Z,18.10
2023-01-02T07:07:45.111Z,18.10
2023-01-02T07:08:45.262Z,18.08
2023-01-02T07:09:45.432Z,18.07
2023-01-02T07:10:52.496Z,18.10
2023-01-02T07:11:46.769Z,18.10
2023-01-02T07:12:45.962Z,18.11
2023-01-02T07:13:46.104Z,18.10
2023-01-02T07:14:46.307Z,18.11
2023-01-02T07:15:46.470Z,18.13
2023-01-02T07:16:46.721Z,18.11
2023-01-02T07:17:46.844Z,18.11
2023-01-02T07:18:46.997Z,18.10
2023-01-02T07:19:53.209Z,18.13
2023-01-02T07:20:48.337Z,18.11
2023-01-02T07:21:47.504Z,18.10
2023-01-02T07:22:47.692Z,18.11
2023-01-02T07:23:47.879Z,18.10
2023-01-02T07:24:48.006Z,18.11
2023-01-02T07:25:48.187Z,18.13
2023-01-02T07:26:48.397Z,18.13
2023-01-02T07:27:48.588Z,18.11
2023-01-02T07:28:48.729Z,18.13
2023-01-02T07:29:48.928Z,18.13
2023-01-02T07:30:49.122Z,18.15
2023-01-02T07:31:49.288Z,18.11
2023-01-02T07:32:49.427Z,18.13
2023-01-02T07:33:49.592Z,18.18
2023-01-02T07:34:49.772Z,18.20
2023-01-02T07:35:49.921Z,18.18
2023-01-02T07:36:50.115Z,18.22
2023-01-02T07:37:50.320Z,18.18
2023-01-02T07:38:50.480Z,18.16
2023-01-02T07:39:50.653Z,18.16
2023-01-02T07:40:50.842Z,18.18
2023-01-02T07:41:51.033Z,18.18
2023-01-02T07:42:51.214Z,18.20
2023-01-02T07:43:51.415Z,18.22
2023-01-02T07:44:51.564Z,18.22
2023-01-02T07:45:51.777Z,18.23
2023-01-02T07:46:51.936Z,18.25
2023-01-02T07:47:52.146Z,18.28
2023-01-02T07:48:52.283Z,18.28
2023-01-02T07:49:52.480Z,18.29
2023-01-02T07:50:52.664Z,18.29
2023-01-02T07:51:52.826Z,18.29
2023-01-02T07:52:52.999Z,18.28
2023-01-02T07:53:53.148Z,18.29
2023-01-02T07:54:53.340Z,18.31
2023-01-02T07:55:53.528Z,18.33
2023-01-02T07:56:53.711Z,18.37
2023-01-02T07:57:53.881Z,18.38
2023-01-02T07:58:54.029Z,18.40
2023-01-02T07:59:54.212Z,18.44
2023-01-02T08:00:58.401Z,18.44
2023-01-02T08:01:55.631Z,18.44
2023-01-02T08:02:54.708Z,18.44
2023-01-02T08:03:54.953Z,18.44
2023-01-02T08:04:55.074Z,18.44
2023-01-02T08:05:55.274Z,18.45
2023-01-02T08:06:55.429Z,18.47
2023-01-02T08:07:55.593Z,18.49
2023-01-02T08:08:55.743Z,18.50
2023-01-02T08:09:55.930Z,18.52
2023-01-02T08:10:56.084Z,18.53
2023-01-02T08:11:56.275Z,18.55
2023-01-02T08:12:56.463Z,18.53
2023-01-02T08:13:56.612Z,18.56
2023-01-02T08:14:56.796Z,18.56
2023-01-02T08:15:56.972Z,18.60
2023-01-02T08:16:57.192Z,18.60
2023-01-02T08:17:57.304Z,18.60
2023-01-02T08:18:57.565Z,18.63
2023-01-02T08:20:01.678Z,18.63
2023-01-02T08:20:58.798Z,18.66
2023-01-02T08:21:57.963Z,18.70
2023-01-02T08:22:58.155Z,18.68
2023-01-02T08:23:58.290Z,18.71
2023-01-02T08:24:58.481Z,18.73
2023-01-02T08:25:58.661Z,18.74
2023-01-02T08:26:58.823Z,18.77
2023-01-02T08:27:59.017Z,18.77
2023-01-02T08:28:59.163Z,18.78
2023-01-02T08:29:59.382Z,18.80
2023-01-02T08:30:59.535Z,18.80
2023-01-02T08:31:59.692Z,18.81
2023-01-02T08:32:59.872Z,18.81
2023-01-02T08:34:00.072Z,18.83
2023-01-02T08:35:00.219Z,18.86
2023-01-02T08:36:00.403Z,18.86
2023-01-02T08:37:00.541Z,18.88
2023-01-02T08:38:00.734Z,18.90
2023-01-02T08:39:00.874Z,18.93
2023-01-02T08:40:01.072Z,18.95
2023-01-02T08:41:01.245Z,18.96
2023-01-02T08:42:01.440Z,18.99
2023-01-02T08:43:01.663Z,18.99
2023-01-02T08:44:01.787Z,19.02
2023-01-02T08:45:01.962Z,19.07
2023-01-02T08:46:02.173Z,19.09
2023-01-02T08:47:02.332Z,19.12
2023-01-02T08:48:19.680Z,19.15
2023-01-02T08:49:03.694Z,19.18
2023-01-02T08:50:02.857Z,19.16
2023-01-02T08:51:03.031Z,19.18
2023-01-02T08:52:03.221Z,19.21
2023-01-02T08:53:05.676Z,19.21
2023-01-02T08:54:03.564Z,19.26
2023-01-02T08:55:03.764Z,19.26
2023-01-02T08:56:03.936Z,19.27
2023-01-02T08:57:04.119Z,19.29
2023-01-02T08:58:04.318Z,19.26
2023-01-02T08:59:04.467Z,19.27
2023-01-02T09:00:04.649Z,19.30
2023-01-02T09:01:04.874Z,19.31
2023-01-02T09:02:05.092Z,19.31
2023-01-02T09:03:05.356Z,19.33
2023-01-02T09:04:11.875Z,19.36
2023-01-02T09:05:06.534Z,19.39
2023-01-02T09:06:05.725Z,19.40
2023-01-02T09:07:05.906Z,19.45
2023-01-02T09:08:06.119Z,19.47
2023-01-02T09:09:11.366Z,19.48
2023-01-02T09:10:07.455Z,19.48
2023-01-02T09:11:06.625Z,19.52
2023-01-02T09:12:06.815Z,19.54
2023-01-02T09:13:07.006Z,19.52
2023-01-02T09:14:07.162Z,19.56
2023-01-02T09:15:07.355Z,19.55
2023-01-02T09:16:07.583Z,19.56
2023-01-02T09:17:07.705Z,19.55
2023-01-02T09:18:07.978Z,19.58
2023-01-02T09:19:08.096Z,19.64
2023-01-02T09:20:08.254Z,19.64
2023-01-02T09:21:08.438Z,19.66
2023-01-02T09:22:08.627Z,19.66
2023-01-02T09:23:08.827Z,19.67
2023-01-02T09:24:08.979Z,19.67
2023-01-02T09:25:09.166Z,19.69
2023-01-02T09:26:09.323Z,19.69
2023-01-02T09:27:09.495Z,19.69
2023-01-02T09:28:09.701Z,19.70
2023-01-02T09:29:09.868Z,19.74
2023-01-02T09:30:10.046Z,19.73
2023-01-02T09:31:12.283Z,19.76
2023-01-02T09:32:10.413Z,19.79
2023-01-02T09:33:10.611Z,19.79
2023-01-02T09:34:10.764Z,19.82
2023-01-02T09:35:10.935Z,19.84
2023-01-02T09:36:11.137Z,19.86
2023-01-02T09:37:11.285Z,19.91
2023-01-02T09:38:11.482Z,19.94
2023-01-02T09:39:11.625Z,19.95
2023-01-02T09:40:11.815Z,19.96
2023-01-02T09:41:11.994Z,19.96
2023-01-02T09:42:12.181Z,19.99
2023-01-02T09:43:12.396Z,20.02
2023-01-02T09:44:12.524Z,20.00
2023-01-02T09:45:12.714Z,20.03
2023-01-02T09:46:12.976Z,20.04
2023-01-02T09:47:13.055Z,20.06
2023-01-02T09:48:13.266Z,20.06
2023-01-02T09:49:13.448Z,20.04
2023-01-02T09:50:13.583Z,20.07
2023-01-02T09:51:13.750Z,20.11
2023-01-02T09:52:13.905Z,20.14
2023-01-02T09:53:14.077Z,20.13
2023-01-02T09:54:14.213Z,20.18
2023-01-02T09:55:14.396Z,20.14
2023-01-02T09:56:21.053Z,20.14
2023-01-02T09:57:15.745Z,20.18
2023-01-02T09:58:14.937Z,20.19
2023-01-02T09:59:15.069Z,20.21
2023-01-02T10:00:15.260Z,20.19
2023-01-02T10:01:15.532Z,20.21
2023-01-02T10:02:15.610Z,20.24
2023-01-02T10:03:15.940Z,20.21
2023-01-02T10:04:16.028Z,20.21
2023-01-02T10:05:16.117Z,20.22
2023-01-02T10:06:16.306Z,20.26
2023-01-02T10:07:16.497Z,20.28
2023-01-02T10:08:16.683Z,20.34
2023-01-02T10:09:16.824Z,20.36
2023-01-02T10:10:17.000Z,20.40
2023-01-02T10:11:17.184Z,20.47
2023-01-02T10:12:17.378Z,20.51
2023-01-02T10:13:17.607Z,20.52
2023-01-02T10:14:19.797Z,20.55
2023-01-02T10:15:17.860Z,20.56
2023-01-02T10:16:18.081Z,20.56
2023-01-02T10:17:18.205Z,20.55
2023-01-02T10:18:18.425Z,20.51
2023-01-02T10:19:18.552Z,20.47
2023-01-02T10:20:23.819Z,20.44
2023-01-02T10:21:19.892Z,20.47
2023-01-02T10:22:19.078Z,20.41
2023-01-02T10:23:19.275Z,20.40
2023-01-02T10:24:19.429Z,20.39
2023-01-02T10:25:19.616Z,20.40
2023-01-02T10:26:19.814Z,20.37
2023-01-02T10:27:19.984Z,20.36
2023-01-02T10:28:20.167Z,20.36
2023-01-02T10:29:20.349Z,20.37
2023-01-02T10:30:20.548Z,20.32
2023-01-02T10:31:20.738Z,20.31
2023-01-02T10:32:20.920Z,20.29
2023-01-02T10:33:21.103Z,20.25
2023-01-02T10:34:21.270Z,20.24
2023-01-02T10:35:21.435Z,20.19
2023-01-02T10:36:21.609Z,20.13
2023-01-02T10:37:21.804Z,20.11
2023-01-02T10:38:22.035Z,20.10
2023-01-02T10:39:22.182Z,20.11
2023-01-02T10:40:22.329Z,20.10
2023-01-02T10:41:22.518Z,20.09
2023-01-02T10:42:22.702Z,20.07
2023-01-02T10:43:22.915Z,20.06
2023-01-02T10:44:23.047Z,20.06
2023-01-02T10:45:23.229Z,20.07
2023-01-02T10:46:23.450Z,20.07
2023-01-02T10:47:23.583Z,20.06
2023-01-02T10:48:23.780Z,20.07
2023-01-02T10:49:23.951Z,20.04
2023-01-02T10:50:24.130Z,20.07
2023-01-02T10:51:24.320Z,20.06
2023-01-02T10:52:24.485Z,20.06
2023-01-02T10:53:24.680Z,20.07
2023-01-02T10:54:24.836Z,20.06
2023-01-02T10:55:24.973Z,20.07
2023-01-02T10:56:25.160Z,20.06
2023-01-02T10:57:25.341Z,20.06
2023-01-02T10:58:25.550Z,20.04
2023-01-02T10:59:25.681Z,20.07
2023-01-02T11:00:28.395Z,20.07
2023-01-02T11:01:26.137Z,20.04
2023-01-02T11:02:26.332Z,20.00
2023-01-02T11:03:26.381Z,19.96
2023-01-02T11:04:26.569Z,19.94
2023-01-02T11:05:26.708Z,19.89
2023-01-02T11:06:29.034Z,19.91
2023-01-02T11:07:27.021Z,19.89
2023-01-02T11:08:27.209Z,19.88
2023-01-02T11:09:27.392Z,19.84
2023-01-02T11:10:27.562Z,19.84
2023-01-02T11:11:27.701Z,19.82
2023-01-02T11:12:27.879Z,19.77
2023-01-02T11:13:28.071Z,19.76
2023-01-02T11:14:28.271Z,19.76
2023-01-02T11:15:28.415Z,19.74
2023-01-02T11:16:28.623Z,19.76
2023-01-02T11:17:28.762Z,19.76
2023-01-02T11:18:28.964Z,19.76
2023-01-02T11:19:29.995Z,19.81
2023-01-02T11:20:29.340Z,19.81
2023-01-02T11:21:29.511Z,19.84
2023-01-02T11:22:29.693Z,19.85
2023-01-02T11:23:29.832Z,19.86
2023-01-02T11:24:30.044Z,19.86
2023-01-02T11:25:30.175Z,19.88
2023-01-02T11:26:30.362Z,19.89
2023-01-02T11:27:30.564Z,19.88
2023-01-02T11:28:30.745Z,19.86
2023-01-02T11:29:30.930Z,19.85
2023-01-02T11:30:31.122Z,19.82
2023-01-02T11:31:31.369Z,19.84
2023-01-02T11:32:31.473Z,19.81
2023-01-02T11:33:31.673Z,19.81
2023-01-02T11:34:31.867Z,19.79
2023-01-02T11:35:32.034Z,19.76
2023-01-02T11:36:32.218Z,19.74
2023-01-02T11:37:32.386Z,19.76
2023-01-02T11:38:32.577Z,19.73
2023-01-02T11:39:32.775Z,19.71
2023-01-02T11:40:32.973Z,19.74
2023-01-02T11:41:33.094Z,19.74
2023-01-02T11:42:33.266Z,19.77
2023-01-02T11:43:33.443Z,19.79
2023-01-02T11:44:33.646Z,19.76
2023-01-02T11:45:33.863Z,19.76
2023-01-02T11:46:33.984Z,19.73
2023-01-02T11:47:34.174Z,19.76
2023-01-02T11:48:34.365Z,19.74
2023-01-02T11:49:34.544Z,19.77
2023-01-02T11:50:34.715Z,19.77
2023-01-02T11:51:34.906Z,19.79
2023-01-02T11:52:35.110Z,19.81
2023-01-02T11:53:35.278Z,19.82
2023-01-02T11:54:35.468Z,19.79
2023-01-02T11:55:35.635Z,19.76
2023-01-02T11:56:35.796Z,19.70
2023-01-02T11:57:35.996Z,19.71
2023-01-02T11:58:36.154Z,19.71
2023-01-02T11:59:36.354Z,19.69
2023-01-02T12:00:36.516Z,19.69
2023-01-02T12:01:36.811Z,19.69
2023-01-02T12:02:36.883Z,19.67
2023-01-02T12:03:37.075Z,19.71
2023-01-02T12:04:37.236Z,19.74
2023-01-02T12:05:37.384Z,19.77
2023-01-02T12:06:37.560Z,19.81
2023-01-02T12:07:37.756Z,19.85
2023-01-02T12:08:43.241Z,19.86
2023-01-02T12:09:39.157Z,19.86
2023-01-02T12:10:38.299Z,19.84
2023-01-02T12:11:38.477Z,19.85
2023-01-02T12:12:38.668Z,19.84
2023-01-02T12:13:38.849Z,19.82
2023-01-02T12:14:39.231Z,19.82
2023-01-02T12:15:39.224Z,19.82
2023-01-02T12:16:39.392Z,19.77
2023-01-02T12:17:39.536Z,19.73
2023-01-02T12:18:39.697Z,19.69
2023-01-02T12:19:39.876Z,19.66
2023-01-02T12:20:40.016Z,19.67
2023-01-02T12:21:40.205Z,19.66
2023-01-02T12:22:40.376Z,19.62
2023-01-02T12:23:40.570Z,19.58
2023-01-02T12:24:40.775Z,19.55
2023-01-02T12:25:40.919Z,19.55
2023-01-02T12:26:41.067Z,19.52
2023-01-02T12:27:41.247Z,19.52
2023-01-02T12:28:41.464Z,19.54
2023-01-02T12:29:47.679Z,19.52
2023-01-02T12:30:42.787Z,19.49
2023-01-02T12:31:42.035Z,19.45
2023-01-02T12:32:42.157Z,19.41
2023-01-02T12:33:42.318Z,19.41
2023-01-02T12:34:42.494Z,19.44
2023-01-02T12:35:42.681Z,19.41
2023-01-02T12:36:42.848Z,19.41
2023-01-02T12:37:43.018Z,19.44
2023-01-02T12:38:43.179Z,19.41
2023-01-02T12:39:43.377Z,19.41
2023-01-02T12:40:43.541Z,19.41
2023-01-02T12:42:01.373Z,19.40
2023-01-02T12:42:44.861Z,19.41
2023-01-02T12:43:44.031Z,19.41
2023-01-02T12:44:44.225Z,19.40
2023-01-02T12:45:44.465Z,19.39
2023-01-02T12:46:44.548Z,19.41
2023-01-02T12:47:44.749Z,19.41
2023-01-02T12:48:44.868Z,19.40
2023-01-02T12:49:45.038Z,19.39
2023-01-02T12:50:48.817Z,19.40
2023-01-02T12:51:45.381Z,19.40
2023-01-02T12:52:45.578Z,19.39
2023-01-02T12:53:45.748Z,19.37
2023-01-02T12:54:45.919Z,19.36